createdAt,value
2023-03-15T00:02:12.236Z,48.41
2023-03-15T00:04:39.925Z,48.60
2023-03-15T00:07:07.606Z,48.44
2023-03-15T00:09:35.299Z,48.69
2023-03-15T00:12:02.990Z,48.72
2023-03-15T00:14:31.600Z,48.33
2023-03-15T00:16:59.281Z,48.58
2023-03-15T00:19:28.369Z,48.56
2023-03-15T00:21:56.084Z,48.63
2023-03-15T00:24:25.142Z,48.47
2023-03-15T00:26:52.964Z,48.36
2023-03-15T00:29:20.886Z,48.16
2023-03-15T00:31:48.570Z,48.47
2023-03-15T00:34:16.246Z,48.19
2023-03-15T00:36:45.365Z,48.80
2023-03-15T00:39:15.204Z,48.25
2023-03-15T00:41:45.953Z,48.47
2023-03-15T00:44:13.750Z,48.63
2023-03-15T00:46:41.469Z,48.32
2023-03-15T00:49:09.146Z,48.68
2023-03-15T00:51:37.471Z,48.61
2023-03-15T00:54:06.585Z,48.72
2023-03-15T00:56:34.252Z,49.49
2023-03-15T00:59:01.950Z,49.77
2023-03-15T01:01:30.633Z,49.14
2023-03-15T01:03:58.431Z,49.73
2023-03-15T01:06:26.983Z,49.95
2023-03-15T01:08:55.769Z,49.36
2023-03-15T01:11:26.041Z,49.37
2023-03-15T01:13:53.847Z,49.43
2023-03-15T01:16:21.909Z,49.56
2023-03-15T01:18:51.498Z,49.58
2023-03-15T01:21:19.321Z,49.39
2023-03-15T01:23:47.026Z,49.30
2023-03-15T01:26:15.583Z,49.00
2023-03-15T01:28:44.728Z,49.12
2023-03-15T01:31:16.596Z,49.48
2023-03-15T01:33:44.309Z,49.17
2023-03-15T01:36:12.085Z,49.54
2023-03-15T01:38:39.815Z,51.76
2023-03-15T01:41:07.549Z,50.19
2023-03-15T01:43:35.755Z,50.41
2023-03-15T01:46:25.030Z,50.65
2023-03-15T01:48:56.779Z,50.58
2023-03-15T01:51:26.338Z,50.42
2023-03-15T01:53:55.043Z,49.79
2023-03-15T01:56:23.262Z,50.21
2023-03-15T01:58:51.212Z,49.99
2023-03-15T02:01:21.303Z,50.24
2023-03-15T02:03:51.260Z,50.56
2023-03-15T02:06:19.661Z,50.60
2023-03-15T02:08:50.913Z,50.02
2023-03-15T02:11:20.477Z,50.09
2023-03-15T02:13:48.593Z,49.63
2023-03-15T02:16:16.613Z,50.15
2023-03-15T02:18:45.755Z,49.95
2023-03-15T02:21:18.876Z,49.79
2023-03-15T02:23:47.167Z,49.84
2023-03-15T02:26:18.844Z,49.77
2023-03-15T02:28:47.940Z,49.57
2023-03-15T02:31:15.670Z,49.75
2023-03-15T02:33:44.945Z,49.67
2023-03-15T02:36:17.742Z,49.51
2023-03-15T02:38:45.439Z,49.64
2023-03-15T02:41:13.210Z,49.33
2023-03-15T02:43:40.927Z,49.39
2023-03-15T02:46:10.059Z,49.19
2023-03-15T02:48:37.789Z,49.11
2023-03-15T02:51:05.867Z,49.25
2023-03-15T02:53:33.744Z,49.24
2023-03-15T02:56:01.417Z,49.40
2023-03-15T02:58:29.151Z,49.57
2023-03-15T03:00:56.836Z,49.50
2023-03-15T03:03:25.998Z,49.82
2023-03-15T03:05:53.683Z,49.89
2023-03-15T03:08:21.403Z,49.76
2023-03-15T03:10:49.832Z,49.86
2023-03-15T03:13:17.572Z,49.64
2023-03-15T03:15:45.684Z,49.52
2023-03-15T03:18:13.532Z,50.02
2023-03-15T03:20:46.019Z,49.60
2023-03-15T03:23:13.899Z,49.88
2023-03-15T03:25:41.575Z,50.01
2023-03-15T03:28:09.245Z,49.74
2023-03-15T03:30:37.094Z,49.70
2023-03-15T03:33:04.947Z,49.81
2023-03-15T03:35:32.878Z,49.72
2023-03-15T03:38:01.955Z,50.11
2023-03-15T03:40:29.622Z,49.68
2023-03-15T03:42:57.357Z,50.09
2023-03-15T03:45:25.077Z,49.94
2023-03-15T03:47:53.127Z,49.64
2023-03-15T03:50:22.006Z,49.86
2023-03-15T03:52:49.749Z,49.60
2023-03-15T03:55:19.035Z,49.92
2023-03-15T03:57:46.725Z,49.87
2023-03-15T04:00:15.414Z,50.04
2023-03-15T04:02:43.710Z,49.98
2023-03-15T04:05:11.473Z,49.87
2023-03-15T04:07:39.255Z,50.08
2023-03-15T04:10:07.762Z,50.04
2023-03-15T04:12:36.881Z,49.82
2023-03-15T04:15:05.032Z,49.85
2023-03-15T04:17:32.724Z,49.88
2023-03-15T04:20:05.687Z,49.89
2023-03-15T04:22:34.744Z,49.85
2023-03-15T04:25:02.876Z,50.18
2023-03-15T04:27:30.679Z,50.13
2023-03-15T04:29:59.712Z,49.85
2023-03-15T04:32:27.390Z,50.27
2023-03-15T04:34:55.896Z,50.32
2023-03-15T04:37:23.561Z,50.02
2023-03-15T04:39:52.497Z,50.04
2023-03-15T04:42:20.289Z,50.48
2023-03-15T04:44:48.031Z,50.25
2023-03-15T04:47:17.072Z,50.69
2023-03-15T04:49:44.791Z,50.66
2023-03-15T04:52:12.697Z,50.22
2023-03-15T04:54:40.397Z,50.38
2023-03-15T04:57:08.267Z,50.16
2023-03-15T04:59:35.925Z,50.30
2023-03-15T05:02:04.132Z,50.34
2023-03-15T05:04:33.255Z,50.34
2023-03-15T05:07:00.924Z,50.15
2023-03-15T05:09:28.599Z,50.15
2023-03-15T05:11:56.291Z,50.43
2023-03-15T05:14:24.034Z,50.24
2023-03-15T05:16:55.296Z,51.08
2023-03-15T05:19:23.394Z,50.96
2023-03-15T05:21:54.608Z,51.20
2023-03-15T05:24:22.337Z,51.08
2023-03-15T05:26:50.002Z,51.05
2023-03-15T05:29:17.690Z,50.81
2023-03-15T05:31:45.382Z,50.87
2023-03-15T05:34:13.174Z,50.79
2023-03-15T05:36:41.749Z,50.83
2023-03-15T05:39:11.433Z,50.25
2023-03-15T05:41:39.114Z,50.29
2023-03-15T05:44:06.860Z,50.71
2023-03-15T05:46:34.620Z,50.27
2023-03-15T05:49:02.276Z,50.89
2023-03-15T05:51:29.944Z,50.49
2023-03-15T05:53:57.594Z,50.46
2023-03-15T05:56:26.694Z,49.93
2023-03-15T05:58:54.359Z,50.01
2023-03-15T06:01:22.053Z,49.95
2023-03-15T06:03:49.826Z,50.00
2023-03-15T06:06:17.571Z,49.60
2023-03-15T06:08:45.275Z,49.46
2023-03-15T06:11:12.935Z,49.73
2023-03-15T06:13:41.962Z,49.63
2023-03-15T06:16:09.626Z,49.70
2023-03-15T06:18:37.319Z,49.57
2023-03-15T06:21:05.201Z,49.27
2023-03-15T06:23:32.895Z,48.74
2023-03-15T06:26:00.571Z,47.75
2023-03-15T06:28:28.252Z,47.76
2023-03-15T06:30:57.337Z,48.86
2023-03-15T06:33:25.410Z,49.42
2023-03-15T06:35:53.146Z,48.68
2023-03-15T06:38:20.968Z,49.03
2023-03-15T06:40:48.687Z,49.23
2023-03-15T06:43:19.440Z,49.32
2023-03-15T06:45:47.290Z,48.98
2023-03-15T06:48:16.425Z,48.94
2023-03-15T06:50:47.343Z,48.70
2023-03-15T06:53:15.602Z,48.75
2023-03-15T06:55:43.290Z,49.01
2023-03-15T06:58:10.990Z,48.79
2023-03-15T07:00:38.794Z,49.26
2023-03-15T07:03:06.524Z,49.02
2023-03-15T07:05:35.642Z,49.36
2023-03-15T07:08:03.333Z,48.81
2023-03-15T07:10:31.181Z,49.11
2023-03-15T07:12:58.882Z,49.31
2023-03-15T07:15:26.542Z,49.57
2023-03-15T07:17:54.313Z,49.59
2023-03-15T07:20:22.045Z,49.03
2023-03-15T07:22:51.199Z,49.20
2023-03-15T07:25:23.782Z,49.55
2023-03-15T07:27:51.735Z,49.56
2023-03-15T07:30:19.762Z,49.85
2023-03-15T07:32:47.773Z,48.80
2023-03-15T07:35:16.861Z,49.16
2023-03-15T07:37:44.989Z,48.68
2023-03-15T07:40:16.043Z,48.83
2023-03-15T07:42:43.962Z,48.50
2023-03-15T07:45:13.243Z,48.74
2023-03-15T07:47:40.916Z,48.14
2023-03-15T07:50:09.629Z,48.49
2023-03-15T07:52:37.349Z,48.22
2023-03-15T07:55:08.284Z,48.12
2023-03-15T07:57:37.365Z,48.23
2023-03-15T08:00:06.824Z,47.51
2023-03-15T08:02:34.571Z,47.47
2023-03-15T08:05:02.237Z,47.59
2023-03-15T08:07:29.958Z,47.63
2023-03-15T08:09:57.956Z,47.71
2023-03-15T08:12:25.752Z,47.32
2023-03-15T08:14:54.799Z,47.69
2023-03-15T08:17:22.516Z,47.57
2023-03-15T08:19:50.221Z,47.55
2023-03-15T08:22:17.893Z,47.90
2023-03-15T08:24:45.936Z,47.63
2023-03-15T08:27:13.611Z,47.46
2023-03-15T08:29:41.391Z,47.84
2023-03-15T08:32:10.878Z,47.70
2023-03-15T08:34:38.783Z,47.45
2023-03-15T08:37:06.490Z,47.40
2023-03-15T08:39:36.299Z,47.34
2023-03-15T08:42:04.131Z,47.61
2023-03-15T08:44:31.842Z,46.94
2023-03-15T08:46:59.633Z,47.33
2023-03-15T08:49:28.715Z,47.40
2023-03-15T08:51:56.399Z,47.15
2023-03-15T08:54:25.559Z,47.27
2023-03-15T08:56:53.256Z,47.44
2023-03-15T08:59:31.248Z,47.19
2023-03-15T09:02:00.867Z,46.86
2023-03-15T09:04:30.060Z,47.36
2023-03-15T09:06:57.861Z,47.08
2023-03-15T09:09:25.654Z,47.27
2023-03-15T09:11:53.340Z,46.70
2023-03-15T09:14:21.075Z,46.81
2023-03-15T09:16:48.808Z,46.52
2023-03-15T09:19:16.502Z,46.46
2023-03-15T09:21:47.075Z,46.31
2023-03-15T09:24:14.787Z,47.14
2023-03-15T09:26:42.509Z,46.62
2023-03-15T09:29:10.211Z,46.20
2023-03-15T09:31:37.901Z,46.45
2023-03-15T09:34:05.898Z,46.25
2023-03-15T09:36:33.720Z,45.72
2023-03-15T09:39:02.828Z,46.36
2023-03-15T09:41:40.993Z,45.67
2023-03-15T09:44:13.868Z,46.11
2023-03-15T09:46:43.433Z,45.63
2023-03-15T09:49:13.712Z,45.77
2023-03-15T09:51:43.403Z,45.57
2023-03-15T09:54:13.847Z,46.19
2023-03-15T09:56:45.633Z,46.29
2023-03-15T09:59:13.516Z,45.82
2023-03-15T10:01:42.006Z,46.32
2023-03-15T10:04:13.161Z,45.87
2023-03-15T10:06:46.072Z,46.47
2023-03-15T10:09:17.631Z,46.33
2023-03-15T10:11:48.811Z,46.23
2023-03-15T10:14:22.767Z,46.62
2023-03-15T10:16:51.065Z,46.17
2023-03-15T10:19:22.950Z,46.33
2023-03-15T10:21:54.279Z,46.33
2023-03-15T10:24:25.128Z,46.01
2023-03-15T10:26:52.820Z,46.40
2023-03-15T10:29:21.923Z,45.82
2023-03-15T10:31:52.586Z,46.14
2023-03-15T10:34:21.883Z,45.74
2023-03-15T10:36:50.357Z,45.78
2023-03-15T10:39:19.295Z,46.15
2023-03-15T10:41:49.128Z,45.85
2023-03-15T10:44:18.354Z,45.49
2023-03-15T10:47:03.002Z,45.96
2023-03-15T10:49:36.261Z,45.48
2023-03-15T10:52:04.223Z,45.12
2023-03-15T10:54:32.920Z,44.84
2023-03-15T10:57:03.678Z,45.26
2023-03-15T10:59:32.216Z,45.33
2023-03-15T11:02:16.444Z,45.75
2023-03-15T11:04:44.313Z,45.51
2023-03-15T11:07:14.036Z,45.03
2023-03-15T11:09:42.633Z,45.25
2023-03-15T11:12:12.267Z,45.42
2023-03-15T11:14:41.131Z,45.52
2023-03-15T11:17:12.737Z,45.46
2023-03-15T11:19:42.808Z,45.29
2023-03-15T11:22:12.292Z,45.12
2023-03-15T11:24:40.070Z,45.26
2023-03-15T11:27:13.857Z,45.15
2023-03-15T11:29:41.745Z,45.49
2023-03-15T11:32:13.688Z,45.50
2023-03-15T11:34:43.286Z,44.57
2023-03-15T11:37:15.430Z,45.31
2023-03-15T11:39:46.230Z,45.57
2023-03-15T11:42:22.069Z,46.23
2023-03-15T11:44:51.063Z,46.07
2023-03-15T11:47:24.618Z,46.12
2023-03-15T11:49:53.025Z,46.70
2023-03-15T11:52:21.789Z,46.98
2023-03-15T11:54:49.487Z,46.29
2023-03-15T11:57:43.817Z,46.82
2023-03-15T12:00:26.969Z,46.57
2023-03-15T12:02:55.613Z,46.68
2023-03-15T12:05:44.529Z,46.67
2023-03-15T12:08:25.115Z,46.82
2023-03-15T12:10:53.400Z,46.92
2023-03-15T12:13:24.734Z,46.46
2023-03-15T12:15:53.145Z,46.89
2023-03-15T12:18:34.505Z,46.88
2023-03-15T12:21:23.393Z,46.71
2023-03-15T12:23:58.898Z,46.50
2023-03-15T12:26:28.422Z,46.33
2023-03-15T12:29:09.712Z,46.16
2023-03-15T12:31:55.584Z,45.88
2023-03-15T12:34:38.260Z,45.51
2023-03-15T12:37:07.782Z,45.39
2023-03-15T12:39:41.507Z,45.80
2023-03-15T12:42:14.179Z,45.41
2023-03-15T12:44:43.790Z,45.23
2023-03-15T12:47:11.552Z,45.12
2023-03-15T12:49:41.231Z,45.46
2023-03-15T12:52:26.725Z,44.71
2023-03-15T12:54:56.541Z,44.97
2023-03-15T12:57:25.670Z,45.25
2023-03-15T12:59:56.059Z,44.99
2023-03-15T13:02:41.740Z,44.50
2023-03-15T13:05:17.969Z,45.13
2023-03-15T13:07:55.880Z,45.09
2023-03-15T13:10:38.250Z,44.73
2023-03-15T13:13:11.239Z,44.85
2023-03-15T13:15:43.036Z,44.82
2023-03-15T13:18:18.029Z,45.42
2023-03-15T13:20:53.218Z,44.74
2023-03-15T13:23:22.351Z,44.88
2023-03-15T13:26:00.191Z,45.35
2023-03-15T13:28:37.119Z,45.49
2023-03-15T13:31:14.281Z,44.80
2023-03-15T13:33:42.074Z,45.16
2023-03-15T13:36:13.503Z,45.50
2023-03-15T13:38:41.902Z,45.31
2023-03-15T13:41:17.289Z,44.96
2023-03-15T13:43:45.281Z,44.90
2023-03-15T13:46:14.447Z,45.03
2023-03-15T13:48:42.932Z,44.47
2023-03-15T13:51:14.128Z,44.72
2023-03-15T13:53:49.973Z,44.19
2023-03-15T13:56:19.033Z,44.02
2023-03-15T13:58:46.715Z,44.38
2023-03-15T14:01:16.037Z,44.49
2023-03-15T14:03:44.238Z,44.41
2023-03-15T14:06:13.355Z,43.92
2023-03-15T14:08:41.196Z,43.83
2023-03-15T14:11:11.287Z,43.97
2023-03-15T14:13:48.424Z,43.96
2023-03-15T14:16:19.011Z,44.02
2023-03-15T14:18:51.218Z,43.58
2023-03-15T14:21:20.397Z,43.32
2023-03-15T14:23:49.147Z,42.84
2023-03-15T14:26:18.709Z,43.09
2023-03-15T14:28:49.877Z,43.26
2023-03-15T14:31:24.100Z,42.96
2023-03-15T14:33:55.799Z,42.85
2023-03-15T14:36:24.935Z,42.11
2023-03-15T14:38:53.418Z,41.95
2023-03-15T14:41:25.270Z,42.22
2023-03-15T14:43:53.183Z,42.61
2023-03-15T14:46:22.225Z,42.38
2023-03-15T14:48:50.480Z,42.20
2023-03-15T14:51:20.078Z,42.15
2023-03-15T14:53:47.942Z,41.62
2023-03-15T14:56:15.645Z,41.90
2023-03-15T14:58:43.455Z,41.77
2023-03-15T15:01:11.758Z,42.12
2023-03-15T15:03:41.442Z,42.27
2023-03-15T15:06:10.509Z,42.30
2023-03-15T15:08:39.963Z,41.94
2023-03-15T15:11:08.534Z,41.98
2023-03-15T15:13:36.557Z,42.32
2023-03-15T15:16:04.761Z,42.39
2023-03-15T15:18:33.609Z,42.00
2023-03-15T15:21:03.755Z,42.11
2023-03-15T15:23:32.149Z,41.82
2023-03-15T15:26:01.217Z,41.86
2023-03-15T15:28:35.914Z,42.30
2023-03-15T15:31:05.498Z,42.19
2023-03-15T15:33:33.987Z,42.37
2023-03-15T15:36:03.214Z,42.19
2023-03-15T15:38:32.932Z,42.61
2023-03-15T15:41:00.697Z,42.63
2023-03-15T15:43:28.761Z,42.21
2023-03-15T15:45:56.640Z,42.22
2023-03-15T15:48:24.344Z,42.45
2023-03-15T15:50:52.032Z,42.34
2023-03-15T15:53:21.085Z,42.32
2023-03-15T15:55:48.809Z,42.82
2023-03-15T15:58:17.522Z,42.50
2023-03-15T16:00:45.223Z,42.81
2023-03-15T16:03:15.015Z,41.82
2023-03-15T16:05:42.974Z,41.86
2023-03-15T16:08:13.369Z,41.58
2023-03-15T16:10:42.607Z,41.44
2023-03-15T16:13:10.400Z,41.21
2023-03-15T16:15:38.273Z,40.98
2023-03-15T16:18:09.820Z,40.71
2023-03-15T16:20:37.658Z,40.97
2023-03-15T16:23:05.400Z,41.09
2023-03-15T16:25:34.310Z,40.86
2023-03-15T16:28:03.668Z,40.76
2023-03-15T16:30:32.169Z,40.33
2023-03-15T16:32:59.956Z,40.84
2023-03-15T16:35:30.822Z,40.79
2023-03-15T16:37:59.107Z,40.97
2023-03-15T16:40:27.830Z,41.16
2023-03-15T16:42:56.431Z,41.21
2023-03-15T16:45:25.497Z,41.21
2023-03-15T16:47:53.382Z,41.28
2023-03-15T16:50:21.372Z,41.15
2023-03-15T16:52:49.829Z,41.02
2023-03-15T16:55:19.075Z,41.15
2023-03-15T16:57:47.245Z,41.05
2023-03-15T17:00:16.662Z,41.38
2023-03-15T17:02:47.068Z,41.48
2023-03-15T17:05:18.893Z,41.27
2023-03-15T17:07:47.134Z,41.97
2023-03-15T17:10:19.907Z,42.35
2023-03-15T17:12:47.602Z,42.38
2023-03-15T17:15:15.382Z,41.73
2023-03-15T17:17:43.446Z,42.79
2023-03-15T17:20:13.884Z,42.49
2023-03-15T17:22:42.431Z,42.56
2023-03-15T17:25:10.566Z,42.94
2023-03-15T17:27:39.325Z,43.15
2023-03-15T17:30:15.746Z,43.05
2023-03-15T17:32:43.548Z,42.93
2023-03-15T17:35:13.547Z,43.11
2023-03-15T17:37:44.497Z,43.33
2023-03-15T17:40:18.580Z,43.72
2023-03-15T17:42:46.258Z,44.15
2023-03-15T17:45:16.377Z,43.47
2023-03-15T17:47:44.115Z,43.64
2023-03-15T17:50:13.524Z,44.25
2023-03-15T17:52:41.306Z,44.14
2023-03-15T17:55:14.859Z,44.36
2023-03-15T17:57:45.782Z,44.08
2023-03-15T18:00:21.381Z,44.40
2023-03-15T18:02:55.320Z,44.41
2023-03-15T18:05:26.299Z,44.20
2023-03-15T18:08:00.891Z,44.29
2023-03-15T18:10:32.700Z,44.66
2023-03-15T18:13:00.500Z,44.66
2023-03-15T18:15:28.241Z,44.32
2023-03-15T18:17:55.910Z,44.51
2023-03-15T18:20:25.837Z,44.36
2023-03-15T18:22:53.514Z,44.63
2023-03-15T18:25:22.428Z,44.43
2023-03-15T18:27:50.435Z,44.58
2023-03-15T18:30:19.472Z,44.74
2023-03-15T18:32:47.167Z,44.65
2023-03-15T18:35:16.811Z,44.87
2023-03-15T18:37:45.864Z,44.66
2023-03-15T18:40:14.647Z,44.79
2023-03-15T18:42:42.341Z,44.84
2023-03-15T18:45:12.632Z,45.19
2023-03-15T18:47:40.411Z,45.30
2023-03-15T18:50:10.984Z,45.02
2023-03-15T18:52:38.852Z,45.04
2023-03-15T18:55:08.871Z,45.23
2023-03-15T18:57:36.846Z,44.86
2023-03-15T19:00:12.982Z,44.89
2023-03-15T19:02:41.828Z,44.89
2023-03-15T19:05:09.766Z,45.49
2023-03-15T19:07:38.537Z,45.60
2023-03-15T19:10:08.748Z,45.61
2023-03-15T19:12:36.879Z,46.07
2023-03-15T19:15:05.573Z,45.87
2023-03-15T19:17:33.287Z,45.94
2023-03-15T19:20:01.007Z,45.81
2023-03-15T19:22:30.938Z,46.23
2023-03-15T19:24:58.639Z,46.46
2023-03-15T19:27:27.947Z,45.79
2023-03-15T19:29:55.668Z,45.84
2023-03-15T19:32:24.273Z,45.86
2023-03-15T19:34:52.007Z,46.34
2023-03-15T19:37:19.757Z,46.08
2023-03-15T19:39:47.430Z,45.83
2023-03-15T19:42:15.131Z,45.77
2023-03-15T19:44:44.461Z,46.19
2023-03-15T19:47:12.222Z,46.44
2023-03-15T19:49:39.889Z,46.25
2023-03-15T19:52:07.627Z,45.99
2023-03-15T19:54:35.328Z,46.31
2023-03-15T19:57:03.001Z,46.29
2023-03-15T19:59:30.667Z,46.06
2023-03-15T20:01:59.819Z,46.30
2023-03-15T20:04:28.135Z,45.88
2023-03-15T20:06:55.840Z,46.12
2023-03-15T20:09:23.577Z,46.44
2023-03-15T20:11:52.053Z,46.25
2023-03-15T20:14:20.794Z,46.37
2023-03-15T20:16:48.523Z,46.23
2023-03-15T20:19:17.589Z,45.89
2023-03-15T20:21:45.298Z,46.12
2023-03-15T20:24:13.000Z,46.30
2023-03-15T20:26:40.810Z,46.07
2023-03-15T20:29:08.840Z,46.51
2023-03-15T20:31:36.566Z,46.62
2023-03-15T20:34:05.673Z,46.10
2023-03-15T20:36:34.897Z,46.59
2023-03-15T20:39:04.189Z,46.50
2023-03-15T20:41:32.918Z,46.55
2023-03-15T20:44:01.236Z,46.59
2023-03-15T20:46:29.544Z,46.39
2023-03-15T20:48:57.415Z,46.33
2023-03-15T20:51:25.088Z,46.80
2023-03-15T20:53:54.151Z,46.34
2023-03-15T20:56:21.896Z,46.30
2023-03-15T20:58:49.682Z,46.44
2023-03-15T21:01:17.467Z,46.45
2023-03-15T21:03:45.478Z,46.56
2023-03-15T21:06:13.518Z,46.61
2023-03-15T21:08:41.537Z,46.50
2023-03-15T21:11:10.663Z,46.81
2023-03-15T21:13:38.341Z,46.46
2023-03-15T21:16:06.719Z,47.25
2023-03-15T21:18:35.914Z,47.49
2023-03-15T21:21:04.882Z,47.16
2023-03-15T21:23:32.907Z,47.30
2023-03-15T21:26:01.912Z,47.55
2023-03-15T21:28:31.033Z,47.00
2023-03-15T21:30:58.866Z,47.60
2023-03-15T21:33:27.857Z,47.72
2023-03-15T21:35:55.759Z,47.28
2023-03-15T21:38:23.602Z,47.28
2023-03-15T21:40:52.426Z,47.43
2023-03-15T21:43:20.668Z,47.67
2023-03-15T21:45:49.897Z,47.72
2023-03-15T21:48:18.399Z,47.44
2023-03-15T21:50:46.140Z,47.45
2023-03-15T21:53:13.878Z,47.66
2023-03-15T21:55:41.541Z,47.87
2023-03-15T21:58:09.781Z,47.59
2023-03-15T22:00:38.092Z,47.96
2023-03-15T22:03:07.130Z,47.60
2023-03-15T22:05:34.919Z,47.82
2023-03-15T22:08:02.682Z,47.95
2023-03-15T22:10:30.388Z,47.68
2023-03-15T22:12:58.092Z,47.66
2023-03-15T22:15:25.775Z,48.15
2023-03-15T22:17:53.450Z,47.83
2023-03-15T22:20:24.954Z,48.07
2023-03-15T22:22:52.802Z,47.67
2023-03-15T22:25:20.779Z,47.79
2023-03-15T22:27:48.458Z,47.79
2023-03-15T22:30:17.636Z,47.34
2023-03-15T22:32:45.378Z,47.50
2023-03-15T22:35:13.171Z,47.56
2023-03-15T22:37:42.190Z,47.60
2023-03-15T22:40:11.124Z,47.64
2023-03-15T22:42:38.867Z,48.03
2023-03-15T22:45:07.487Z,47.75
2023-03-15T22:47:35.263Z,47.81
2023-03-15T22:50:03.023Z,47.57
2023-03-15T22:52:30.728Z,47.54
2023-03-15T22:54:59.756Z,47.43
2023-03-15T22:57:27.537Z,47.41
2023-03-15T22:59:56.184Z,47.28
2023-03-15T23:02:24.877Z,47.63
2023-03-15T23:04:52.760Z,47.58
2023-03-15T23:07:20.468Z,47.18
2023-03-15T23:09:48.154Z,47.52
2023-03-15T23:12:19.898Z,47.69
2023-03-15T23:14:52.173Z,47.56
2023-03-15T23:17:19.903Z,47.46
2023-03-15T23:19:47.563Z,47.33
2023-03-15T23:22:15.490Z,47.65
2023-03-15T23:24:45.944Z,47.60
2023-03-15T23:27:13.797Z,47.19
2023-03-15T23:29:53.638Z,47.60
2023-03-15T23:32:22.047Z,47.65
2023-03-15T23:34:49.916Z,47.57
2023-03-15T23:37:17.709Z,47.27
2023-03-15T23:39:45.619Z,47.79
2023-03-15T23:42:13.744Z,47.70
2023-03-15T23:44:43.288Z,47.43
2023-03-15T23:47:12.322Z,47.51
2023-03-15T23:49:40.008Z,47.80
2023-03-15T23:52:08.264Z,47.56
2023-03-15T23:54:40.240Z,47.87
2023-03-15T23:57:08.073Z,47.86
2023-03-15T23:59:35.910Z,47.46
